Time,TemperatureF,DewpointF,PressureIn,WindDirection,WindDirectionDegrees,WindSpeedMPH,WindSpeedGustMPH,Humidity,HourlyPrecipIn,Conditions,Clouds,dailyrainin,SoftwareType,DateUTC
2013-03-02 00:02:00,14.7,11.3,30.31,NNW,344,7.0,7.0,86,0.00,,,0.00,Wunderground v.1.15,2013-03-02 06:02:00,
2013-03-02 00:08:00,14.2,10.8,30.31,NNW,344,6.0,7.0,86,0.00,,,0.00,Wunderground v.1.15,2013-03-02 06:08:00,
2013-03-02 00:13:00,13.7,10.5,30.31,NNW,344,6.0,6.0,87,0.00,,,0.00,Wunderground v.1.15,2013-03-02 06:13:00,
2013-03-02 00:19:00,13.3,10.2,30.31,NNW,344,5.0,6.0,87,0.00,,,0.00,Wunderground v.1.15,2013-03-02 06:19:00,
2013-03-02 00:25:00,12.6,9.2,30.31,NNW,344,6.0,6.0,86,0.00,,,0.00,Wunderground v.1.15,2013-03-02 06:25:00,
2013-03-02 00:30:00,12.2,9.1,30.31,NNW,344,6.0,6.0,87,0.00,,,0.00,Wunderground v.1.15,2013-03-02 06:30:00,
2013-03-02 00:42:00,12.1,9.2,30.30,NNW,344,6.0,6.0,88,0.00,,,0.00,Wunderground v.1.15,2013-03-02 06:42:00,
2013-03-02 00:48:00,12.1,9.0,30.30,NNW,344,10.0,11.0,87,0.00,,,0.00,Wunderground v.1.15,2013-03-02 06:48:00,
2013-03-02 00:53:00,11.7,8.6,30.30,NNW,344,5.0,7.0,87,0.00,,,0.00,Wunderground v.1.15,2013-03-02 06:53:00,
2013-03-02 00:59:00,11.2,8.1,30.30,NNW,344,6.0,7.0,87,0.00,,,0.00,Wunderground v.1.15,2013-03-02 06:59:00,
2013-03-02 01:05:00,10.5,7.4,30.31,NNW,344,5.0,6.0,87,0.00,,,0.00,Wunderground v.1.15,2013-03-02 07:05:00,
2013-03-02 01:10:00,10.2,7.1,30.31,NNW,344,5.0,5.0,87,0.00,,,0.00,Wunderground v.1.15,2013-03-02 07:10:00,
2013-03-02 01:16:00,9.9,7.1,30.30,NNW,344,7.0,7.0,88,0.00,,,0.00,Wunderground v.1.15,2013-03-02 07:16:00,
2013-03-02 01:22:00,9.6,6.8,30.31,NNW,344,6.0,6.0,88,0.00,,,0.00,Wunderground v.1.15,2013-03-02 07:22:00,
2013-03-02 01:28:00,9.1,6.0,30.31,NNW,344,7.0,7.0,87,0.00,,,0.00,Wunderground v.1.15,2013-03-02 07:28:00,
2013-03-02 01:34:00,9.4,6.8,30.31,NNW,342,7.0,7.0,89,0.00,,,0.00,Wunderground v.1.15,2013-03-02 07:34:00,
2013-03-02 01:39:00,9.6,7.0,30.31,NNW,342,6.0,7.0,89,0.00,,,0.00,Wunderground v.1.15,2013-03-02 07:39:00,
2013-03-02 01:45:00,9.5,6.9,30.31,NNW,341,7.0,7.0,89,0.00,,,0.00,Wunderground v.1.15,2013-03-02 07:45:00,
2013-03-02 01:51:00,9.0,6.2,30.31,NNW,341,6.0,7.0,88,0.00,,,0.00,Wunderground v.1.15,2013-03-02 07:51:00,
2013-03-02 01:56:00,8.6,5.8,30.31,NNW,341,7.0,7.0,88,0.00,,,0.00,Wunderground v.1.15,2013-03-02 07:56:00,
2013-03-02 02:01:00,8.7,6.1,30.30,NNW,341,7.0,8.0,89,0.00,,,0.00,Wunderground v.1.15,2013-03-02 08:01:00,
2013-03-02 02:06:00,8.7,6.1,30.30,NNW,341,7.0,7.0,89,0.00,,,0.00,Wunderground v.1.15,2013-03-02 08:06:00,
2013-03-02 02:11:00,8.6,6.0,30.30,NNW,341,6.0,7.0,89,0.00,,,0.00,Wunderground v.1.15,2013-03-02 08:11:00,
2013-03-02 02:16:00,8.5,5.9,30.30,NNW,344,6.0,7.0,89,0.00,,,0.00,Wunderground v.1.15,2013-03-02 08:16:00,
2013-03-02 02:24:00,8.7,6.4,30.30,North,349,7.0,7.0,90,0.00,,,0.00,Wunderground v.1.15,2013-03-02 08:24:00,
2013-03-02 02:29:00,9.1,7.0,30.30,NNW,348,7.0,8.0,91,0.00,,,0.00,Wunderground v.1.15,2013-03-02 08:29:00,
2013-03-02 02:34:00,8.8,6.5,30.29,NNW,348,8.0,8.0,90,0.00,,,0.00,Wunderground v.1.15,2013-03-02 08:34:00,
2013-03-02 02:39:00,8.6,6.5,30.30,NNW,348,7.0,9.0,91,0.00,,,0.00,Wunderground v.1.15,2013-03-02 08:39:00,
2013-03-02 02:44:00,7.9,5.3,30.30,NNW,348,8.0,8.0,89,0.00,,,0.00,Wunderground v.1.15,2013-03-02 08:44:00,
2013-03-02 02:50:00,7.6,5.3,30.30,North,349,8.0,9.0,90,0.00,,,0.00,Wunderground v.1.15,2013-03-02 08:50:00,
2013-03-02 02:55:00,7.3,5.0,30.29,North,349,8.0,12.0,90,0.00,,,0.00,Wunderground v.1.15,2013-03-02 08:55:00,
2013-03-02 03:00:00,6.7,4.4,30.29,North,349,7.0,8.0,90,0.00,,,0.00,Wunderground v.1.15,2013-03-02 09:00:00,
2013-03-02 03:05:00,6.7,4.6,30.29,NNW,348,7.0,16.0,91,0.00,,,0.00,Wunderground v.1.15,2013-03-02 09:05:00,
2013-03-02 03:10:00,6.3,4.0,30.29,North,350,8.0,10.0,90,0.00,,,0.00,Wunderground v.1.15,2013-03-02 09:10:00,
2013-03-02 03:15:00,6.5,4.4,30.29,North,350,14.0,14.0,91,0.00,,,0.00,Wunderground v.1.15,2013-03-02 09:15:00,
2013-03-02 03:20:00,6.2,3.9,30.29,North,350,6.0,14.0,90,0.00,,,0.00,Wunderground v.1.15,2013-03-02 09:20:00,
2013-03-02 03:26:00,5.3,2.8,30.28,North,350,6.0,10.0,89,0.00,,,0.00,Wunderground v.1.15,2013-03-02 09:26:00,
2013-03-02 03:31:00,5.1,2.8,30.28,North,351,14.0,14.0,90,0.00,,,0.00,Wunderground v.1.15,2013-03-02 09:31:00,
2013-03-02 03:36:00,5.0,2.7,30.29,North,351,14.0,14.0,90,0.00,,,0.00,Wunderground v.1.15,2013-03-02 09:36:00,
2013-03-02 03:41:00,5.2,2.9,30.29,North,351,7.0,15.0,90,0.00,,,0.00,Wunderground v.1.15,2013-03-02 09:41:00,
2013-03-02 03:46:00,5.6,3.5,30.28,North,351,13.0,14.0,91,0.00,,,0.00,Wunderground v.1.15,2013-03-02 09:46:00,
2013-03-02 03:52:00,5.8,3.5,30.29,North,351,14.0,14.0,90,0.00,,,0.00,Wunderground v.1.15,2013-03-02 09:52:00,
2013-03-02 03:58:00,6.1,4.0,30.29,North,351,6.0,14.0,91,0.00,,,0.00,Wunderground v.1.15,2013-03-02 09:58:00,
2013-03-02 04:03:00,5.7,3.2,30.29,North,351,6.0,12.0,89,0.00,,,0.00,Wunderground v.1.15,2013-03-02 10:03:00,
2013-03-02 04:08:00,5.6,3.3,30.29,North,351,6.0,13.0,90,0.00,,,0.00,Wunderground v.1.15,2013-03-02 10:08:00,
2013-03-02 04:13:00,5.4,3.1,30.29,North,351,6.0,7.0,90,0.00,,,0.00,Wunderground v.1.15,2013-03-02 10:13:00,
2013-03-02 04:18:00,5.0,2.5,30.29,North,351,5.0,7.0,89,0.00,,,0.00,Wunderground v.1.15,2013-03-02 10:18:00,
2013-03-02 04:23:00,4.7,2.2,30.29,North,351,5.0,6.0,89,0.00,,,0.00,Wunderground v.1.15,2013-03-02 10:23:00,
2013-03-02 04:28:00,4.6,2.1,30.29,North,351,6.0,7.0,89,0.00,,,0.00,Wunderground v.1.15,2013-03-02 10:28:00,
2013-03-02 04:35:00,3.8,1.3,30.30,North,351,6.0,6.0,89,0.00,,,0.00,Wunderground v.1.15,2013-03-02 10:35:00,
2013-03-02 04:40:00,3.6,1.1,30.30,North,351,6.0,7.0,89,0.00,,,0.00,Wunderground v.1.15,2013-03-02 10:40:00,
2013-03-02 04:45:00,3.3,0.8,30.30,North,351,5.0,6.0,89,0.00,,,0.00,Wunderground v.1.15,2013-03-02 10:45:00,
2013-03-02 04:50:00,4.0,1.7,30.30,North,351,5.0,6.0,90,0.00,,,0.00,Wunderground v.1.15,2013-03-02 10:50:00,
2013-03-02 04:55:00,4.6,2.3,30.31,North,351,5.0,5.0,90,0.00,,,0.00,Wunderground v.1.15,2013-03-02 10:55:00,
2013-03-02 05:00:00,4.8,2.5,30.31,North,351,4.0,5.0,90,0.00,,,0.00,Wunderground v.1.15,2013-03-02 11:00:00,
2013-03-02 05:05:00,4.8,2.3,30.30,North,351,3.0,5.0,89,0.00,,,0.00,Wunderground v.1.15,2013-03-02 11:05:00,
2013-03-02 05:10:00,4.4,1.6,30.30,North,351,4.0,4.0,88,0.00,,,0.00,Wunderground v.1.15,2013-03-02 11:10:00,
2013-03-02 05:15:00,3.9,1.1,30.30,North,351,4.0,5.0,88,0.00,,,0.00,Wunderground v.1.15,2013-03-02 11:15:00,
2013-03-02 05:20:00,3.8,1.3,30.30,North,351,5.0,5.0,89,0.00,,,0.00,Wunderground v.1.15,2013-03-02 11:20:00,
2013-03-02 05:25:00,4.1,1.6,30.30,North,351,5.0,6.0,89,0.00,,,0.00,Wunderground v.1.15,2013-03-02 11:25:00,
2013-03-02 05:30:00,4.3,1.8,30.30,North,351,6.0,6.0,89,0.00,,,0.00,Wunderground v.1.15,2013-03-02 11:30:00,
2013-03-02 05:35:00,4.6,2.1,30.30,North,351,5.0,6.0,89,0.00,,,0.00,Wunderground v.1.15,2013-03-02 11:35:00,
2013-03-02 05:40:00,5.1,2.8,30.31,North,351,5.0,6.0,90,0.00,,,0.00,Wunderground v.1.15,2013-03-02 11:40:00,
2013-03-02 05:45:00,5.2,2.7,30.31,North,351,6.0,6.0,89,0.00,,,0.00,Wunderground v.1.15,2013-03-02 11:45:00,
2013-03-02 05:50:00,5.2,2.7,30.31,North,351,5.0,6.0,89,0.00,,,0.00,Wunderground v.1.15,2013-03-02 11:50:00,
2013-03-02 05:55:00,4.9,2.4,30.31,North,351,5.0,6.0,89,0.00,,,0.00,Wunderground v.1.15,2013-03-02 11:55:00,
2013-03-02 06:00:00,4.8,2.3,30.31,North,351,5.0,5.0,89,0.00,,,0.00,Wunderground v.1.15,2013-03-02 12:00:00,
2013-03-02 06:05:00,4.6,1.8,30.32,North,351,4.0,5.0,88,0.00,,,0.00,Wunderground v.1.15,2013-03-02 12:05:00,
2013-03-02 06:10:00,4.6,2.1,30.32,North,351,5.0,5.0,89,0.00,,,0.00,Wunderground v.1.15,2013-03-02 12:10:00,
2013-03-02 06:15:00,4.6,2.1,30.32,North,351,4.0,5.0,89,0.00,,,0.00,Wunderground v.1.15,2013-03-02 12:15:00,
2013-03-02 06:20:00,4.2,1.4,30.32,North,351,4.0,5.0,88,0.00,,,0.00,Wunderground v.1.15,2013-03-02 12:20:00,
2013-03-02 06:25:00,4.0,1.2,30.32,North,351,5.0,8.0,88,0.00,,,0.00,Wunderground v.1.15,2013-03-02 12:25:00,
2013-03-02 06:30:00,4.3,1.8,30.32,North,351,4.0,8.0,89,0.00,,,0.00,Wunderground v.1.15,2013-03-02 12:30:00,
2013-03-02 06:35:00,4.1,1.3,30.32,North,351,3.0,4.0,88,0.00,,,0.00,Wunderground v.1.15,2013-03-02 12:35:00,
2013-03-02 06:40:00,3.8,1.0,30.32,North,351,3.0,4.0,88,0.00,,,0.00,Wunderground v.1.15,2013-03-02 12:40:00,
2013-03-02 06:45:00,3.6,0.8,30.32,North,351,4.0,4.0,88,0.00,,,0.00,Wunderground v.1.15,2013-03-02 12:45:00,
2013-03-02 06:50:00,3.4,0.6,30.32,North,351,3.0,4.0,88,0.00,,,0.00,Wunderground v.1.15,2013-03-02 12:50:00,
2013-03-02 06:55:00,3.1,0.3,30.32,North,351,3.0,4.0,88,0.00,,,0.00,Wunderground v.1.15,2013-03-02 12:55:00,
2013-03-02 07:01:00,3.3,0.5,30.32,North,351,4.0,4.0,88,0.00,,,0.00,Wunderground v.1.15,2013-03-02 13:01:00,
2013-03-02 07:06:00,3.0,0.3,30.32,North,351,3.0,4.0,88,0.00,,,0.00,Wunderground v.1.15,2013-03-02 13:06:00,
2013-03-02 07:11:00,2.9,0.2,30.32,North,351,3.0,4.0,88,0.00,,,0.00,Wunderground v.1.15,2013-03-02 13:11:00,
2013-03-02 07:16:00,2.9,0.2,30.32,North,351,3.0,4.0,88,0.00,,,0.00,Wunderground v.1.15,2013-03-02 13:16:00,
2013-03-02 07:21:00,2.7,0.0,30.32,North,351,3.0,4.0,88,0.00,,,0.00,Wunderground v.1.15,2013-03-02 13:21:00,
2013-03-02 07:26:00,2.6,-0.1,30.32,North,351,3.0,4.0,88,0.00,,,0.00,Wunderground v.1.15,2013-03-02 13:26:00,
2013-03-02 07:33:00,2.6,-0.1,30.31,North,351,3.0,3.0,88,0.00,,,0.00,Wunderground v.1.15,2013-03-02 13:33:00,
2013-03-02 07:39:00,2.7,0.0,30.31,North,351,3.0,4.0,88,0.00,,,0.00,Wunderground v.1.15,2013-03-02 13:39:00,
2013-03-02 07:44:00,3.4,0.9,30.31,North,351,4.0,4.0,89,0.00,,,0.00,Wunderground v.1.15,2013-03-02 13:44:00,
2013-03-02 07:49:00,3.6,1.1,30.31,North,351,3.0,4.0,89,0.00,,,0.00,Wunderground v.1.15,2013-03-02 13:49:00,
2013-03-02 07:54:00,3.6,0.8,30.31,North,351,3.0,4.0,88,0.00,,,0.00,Wunderground v.1.15,2013-03-02 13:54:00,
2013-03-02 07:59:00,3.7,0.9,30.32,North,351,0.0,4.0,88,0.00,,,0.00,Wunderground v.1.15,2013-03-02 13:59:00,
2013-03-02 08:13:00,4.7,2.4,30.33,North,351,1.0,1.0,90,0.00,,,0.00,Wunderground v.1.15,2013-03-02 14:13:00,
2013-03-02 08:18:00,5.0,2.5,30.33,North,351,2.0,2.0,89,0.00,,,0.00,Wunderground v.1.15,2013-03-02 14:18:00,
2013-03-02 08:28:00,5.5,3.0,30.34,NNW,347,3.0,3.0,89,0.00,,,0.00,Wunderground v.1.15,2013-03-02 14:28:00,
2013-03-02 08:33:00,5.6,3.1,30.33,NNW,346,2.0,4.0,89,0.00,,,0.00,Wunderground v.1.15,2013-03-02 14:33:00,
2013-03-02 08:39:00,5.7,3.2,30.33,NNW,346,4.0,4.0,89,0.00,,,0.00,Wunderground v.1.15,2013-03-02 14:39:00,
2013-03-02 08:44:00,5.9,3.4,30.34,NNW,346,3.0,4.0,89,0.00,,,0.00,Wunderground v.1.15,2013-03-02 14:44:00,
2013-03-02 08:49:00,6.1,3.6,30.33,NNW,338,5.0,5.0,89,0.00,,,0.00,Wunderground v.1.15,2013-03-02 14:49:00,
2013-03-02 09:00:00,6.5,3.9,30.34,NNW,336,6.0,6.0,89,0.00,,,0.00,Wunderground v.1.15,2013-03-02 15:00:00,
2013-03-02 09:11:00,7.3,4.7,30.34,NNW,335,6.0,6.0,89,0.00,,,0.00,Wunderground v.1.15,2013-03-02 15:11:00,
2013-03-02 09:21:00,7.9,5.3,30.34,NNW,330,7.0,7.0,89,0.00,,,0.00,Wunderground v.1.15,2013-03-02 15:21:00,
2013-03-02 09:28:00,8.4,5.8,30.34,NW,324,7.0,8.0,89,0.00,,,0.00,Wunderground v.1.15,2013-03-02 15:28:00,
2013-03-02 09:35:00,8.7,6.1,30.34,NW,324,8.0,8.0,89,0.00,,,0.00,Wunderground v.1.15,2013-03-02 15:35:00,
2013-03-02 09:40:00,9.0,6.4,30.34,NW,323,8.0,9.0,89,0.00,,,0.00,Wunderground v.1.15,2013-03-02 15:40:00,
2013-03-02 09:45:00,9.1,6.5,30.34,NW,323,8.0,8.0,89,0.00,,,0.00,Wunderground v.1.15,2013-03-02 15:45:00,
2013-03-02 09:50:00,9.8,7.5,30.34,NW,325,7.0,8.0,90,0.00,,,0.00,Wunderground v.1.15,2013-03-02 15:50:00,
2013-03-02 09:55:00,10.1,7.8,30.34,NNW,328,8.0,9.0,90,0.00,,,0.00,Wunderground v.1.15,2013-03-02 15:55:00,
2013-03-02 10:00:00,10.5,8.1,30.34,NNW,329,8.0,8.0,90,0.00,,,0.00,Wunderground v.1.15,2013-03-02 16:00:00,
2013-03-02 10:14:00,11.8,9.4,30.34,NNW,337,11.0,11.0,90,0.00,,,0.00,Wunderground v.1.15,2013-03-02 16:14:00,
2013-03-02 10:19:00,12.1,9.7,30.33,NNW,331,10.0,12.0,90,0.00,,,0.00,Wunderground v.1.15,2013-03-02 16:19:00,
2013-03-02 10:25:00,12.4,10.0,30.34,NW,326,8.0,10.0,90,0.00,,,0.00,Wunderground v.1.15,2013-03-02 16:25:00,
2013-03-02 10:33:00,13.0,10.6,30.34,NW,325,9.0,9.0,90,0.00,,,0.00,Wunderground v.1.15,2013-03-02 16:33:00,
2013-03-02 10:38:00,13.3,10.9,30.34,NNW,331,8.0,10.0,90,0.00,,,0.00,Wunderground v.1.15,2013-03-02 16:38:00,
2013-03-02 10:43:00,13.6,11.0,30.34,NNW,331,9.0,9.0,89,0.00,,,0.00,Wunderground v.1.15,2013-03-02 16:43:00,
2013-03-02 10:48:00,13.9,11.3,30.34,NNW,332,10.0,10.0,89,0.00,,,0.00,Wunderground v.1.15,2013-03-02 16:48:00,
2013-03-02 10:53:00,14.0,11.4,30.34,NNW,333,10.0,10.0,89,0.00,,,0.00,Wunderground v.1.15,2013-03-02 16:53:00,
2013-03-02 10:58:00,14.5,11.9,30.34,NNW,342,7.0,10.0,89,0.00,,,0.00,Wunderground v.1.15,2013-03-02 16:58:00,
2013-03-02 11:12:00,15.4,12.2,30.34,NNW,347,9.0,9.0,87,0.00,,,0.00,Wunderground v.1.15,2013-03-02 17:12:00,
2013-03-02 11:17:00,15.5,12.1,30.33,NNW,342,9.0,11.0,86,0.00,,,0.00,Wunderground v.1.15,2013-03-02 17:17:00,
2013-03-02 11:30:00,15.8,12.1,30.33,NNW,333,9.0,10.0,85,0.00,,,0.00,Wunderground v.1.15,2013-03-02 17:30:00,
2013-03-02 11:35:00,16.0,12.3,30.33,NNW,336,9.0,10.0,85,0.00,,,0.00,Wunderground v.1.15,2013-03-02 17:35:00,
2013-03-02 11:40:00,16.3,12.6,30.33,NNW,333,8.0,10.0,85,0.00,,,0.00,Wunderground v.1.15,2013-03-02 17:40:00,
2013-03-02 11:45:00,16.6,12.9,30.33,NNW,337,9.0,10.0,85,0.00,,,0.00,Wunderground v.1.15,2013-03-02 17:45:00,
2013-03-02 11:50:00,16.7,13.0,30.33,NNW,336,7.0,10.0,85,0.00,,,0.00,Wunderground v.1.15,2013-03-02 17:50:00,
2013-03-02 12:03:00,17.1,13.1,30.32,NNW,341,9.0,9.0,84,0.00,,,0.00,Wunderground v.1.15,2013-03-02 18:03:00,
2013-03-02 12:08:00,17.3,13.3,30.32,NNW,343,8.0,10.0,84,0.00,,,0.00,Wunderground v.1.15,2013-03-02 18:08:00,
2013-03-02 12:13:00,17.7,13.7,30.32,NNW,343,7.0,8.0,84,0.00,,,0.00,Wunderground v.1.15,2013-03-02 18:13:00,
2013-03-02 12:18:00,18.0,14.0,30.31,NNW,343,5.0,8.0,84,0.00,,,0.00,Wunderground v.1.15,2013-03-02 18:18:00,
2013-03-02 12:23:00,18.2,14.2,30.31,NNW,342,7.0,7.0,84,0.00,,,0.00,Wunderground v.1.15,2013-03-02 18:23:00,
2013-03-02 12:28:00,18.6,14.3,30.31,NNW,339,6.0,7.0,83,0.00,,,0.00,Wunderground v.1.15,2013-03-02 18:28:00,
2013-03-02 12:33:00,18.8,14.5,30.31,NNW,332,7.0,7.0,83,0.00,,,0.00,Wunderground v.1.15,2013-03-02 18:33:00,
2013-03-02 12:38:00,18.9,14.3,30.31,NNW,327,6.0,8.0,82,0.00,,,0.00,Wunderground v.1.15,2013-03-02 18:38:00,
2013-03-02 12:43:00,19.1,14.5,30.30,NW,313,7.0,8.0,82,0.00,,,0.00,Wunderground v.1.15,2013-03-02 18:43:00,
2013-03-02 12:49:00,19.2,14.6,30.30,NW,309,8.0,8.0,82,0.00,,,0.00,Wunderground v.1.15,2013-03-02 18:49:00,
2013-03-02 12:54:00,19.4,14.8,30.30,NW,312,8.0,8.0,82,0.00,,,0.00,Wunderground v.1.15,2013-03-02 18:54:00,
2013-03-02 12:59:00,19.5,14.9,30.30,NW,312,8.0,9.0,82,0.00,,,0.00,Wunderground v.1.15,2013-03-02 18:59:00,
2013-03-02 13:10:00,19.8,15.2,30.30,NW,321,10.0,10.0,82,0.00,,,0.00,Wunderground v.1.15,2013-03-02 19:10:00,
2013-03-02 13:15:00,19.9,15.3,30.30,NW,315,10.0,11.0,82,0.00,,,0.00,Wunderground v.1.15,2013-03-02 19:15:00,
2013-03-02 13:20:00,20.0,15.7,30.30,WNW,302,9.0,11.0,83,0.00,,,0.00,Wunderground v.1.15,2013-03-02 19:20:00,
2013-03-02 13:25:00,19.9,15.6,30.30,WNW,303,9.0,10.0,83,0.00,,,0.00,Wunderground v.1.15,2013-03-02 19:25:00,
2013-03-02 13:30:00,20.0,15.7,30.29,NNW,327,8.0,10.0,83,0.00,,,0.00,Wunderground v.1.15,2013-03-02 19:30:00,
2013-03-02 13:35:00,20.2,15.6,30.30,NW,311,10.0,10.0,82,0.00,,,0.00,Wunderground v.1.15,2013-03-02 19:35:00,
2013-03-02 13:40:00,20.4,15.8,30.30,NW,312,8.0,10.0,82,0.00,,,0.00,Wunderground v.1.15,2013-03-02 19:40:00,
2013-03-02 13:45:00,20.4,15.8,30.29,NW,311,7.0,9.0,82,0.00,,,0.00,Wunderground v.1.15,2013-03-02 19:45:00,
2013-03-02 13:50:00,20.3,15.7,30.29,NW,316,7.0,9.0,82,0.00,,,0.00,Wunderground v.1.15,2013-03-02 19:50:00,
2013-03-02 13:57:00,20.5,15.6,30.29,NW,314,7.0,7.0,81,0.00,,,0.00,Wunderground v.1.15,2013-03-02 19:57:00,
2013-03-02 14:03:00,20.7,15.8,30.29,NW,309,7.0,7.0,81,0.00,,,0.00,Wunderground v.1.15,2013-03-02 20:03:00,
2013-03-02 14:08:00,20.9,16.0,30.29,NW,309,5.0,8.0,81,0.00,,,0.00,Wunderground v.1.15,2013-03-02 20:08:00,
2013-03-02 14:13:00,21.1,16.2,30.29,NW,310,7.0,8.0,81,0.00,,,0.00,Wunderground v.1.15,2013-03-02 20:13:00,
2013-03-02 14:18:00,21.2,15.7,30.28,NW,311,8.0,8.0,79,0.00,,,0.00,Wunderground v.1.15,2013-03-02 20:18:00,
2013-03-02 14:24:00,21.3,15.5,30.29,WNW,303,7.0,9.0,78,0.00,,,0.00,Wunderground v.1.15,2013-03-02 20:24:00,
2013-03-02 14:29:00,21.4,15.6,30.28,NW,304,9.0,10.0,78,0.00,,,0.00,Wunderground v.1.15,2013-03-02 20:29:00,
2013-03-02 14:34:00,21.3,15.5,30.29,NW,308,7.0,9.0,78,0.00,,,0.00,Wunderground v.1.15,2013-03-02 20:34:00,
2013-03-02 14:39:00,21.3,15.5,30.28,NW,308,7.0,9.0,78,0.00,,,0.00,Wunderground v.1.15,2013-03-02 20:39:00,
2013-03-02 14:44:00,21.6,16.1,30.28,NW,309,8.0,8.0,79,0.00,,,0.00,Wunderground v.1.15,2013-03-02 20:44:00,
2013-03-02 14:50:00,21.7,16.2,30.28,NW,310,8.0,9.0,79,0.00,,,0.00,Wunderground v.1.15,2013-03-02 20:50:00,
2013-03-02 14:55:00,21.8,16.0,30.28,NW,306,9.0,9.0,78,0.00,,,0.00,Wunderground v.1.15,2013-03-02 20:55:00,
2013-03-02 15:00:00,21.8,16.0,30.28,NW,304,8.0,9.0,78,0.00,,,0.00,Wunderground v.1.15,2013-03-02 21:00:00,
2013-03-02 15:05:00,22.0,16.2,30.28,WNW,303,9.0,9.0,78,0.00,,,0.00,Wunderground v.1.15,2013-03-02 21:05:00,
2013-03-02 15:10:00,22.0,15.9,30.28,WNW,302,10.0,11.0,77,0.00,,,0.00,Wunderground v.1.15,2013-03-02 21:10:00,
2013-03-02 15:15:00,21.9,15.8,30.28,NW,309,8.0,11.0,77,0.00,,,0.00,Wunderground v.1.15,2013-03-02 21:15:00,
2013-03-02 15:20:00,21.9,15.8,30.28,WNW,298,10.0,11.0,77,0.00,,,0.00,Wunderground v.1.15,2013-03-02 21:20:00,
2013-03-02 15:25:00,21.8,15.7,30.28,WNW,302,10.0,12.0,77,0.00,,,0.00,Wunderground v.1.15,2013-03-02 21:25:00,
2013-03-02 15:30:00,21.7,15.3,30.28,WNW,297,10.0,13.0,76,0.00,,,0.00,Wunderground v.1.15,2013-03-02 21:30:00,
2013-03-02 15:35:00,21.6,15.5,30.28,WNW,301,8.0,10.0,77,0.00,,,0.00,Wunderground v.1.15,2013-03-02 21:35:00,
2013-03-02 15:40:00,21.6,15.5,30.28,NW,305,10.0,10.0,77,0.00,,,0.00,Wunderground v.1.15,2013-03-02 21:40:00,
2013-03-02 15:45:00,21.6,15.8,30.28,WNW,301,8.0,9.0,78,0.00,,,0.00,Wunderground v.1.15,2013-03-02 21:45:00,
2013-03-02 15:50:00,21.6,15.8,30.28,WNW,303,7.0,9.0,78,0.00,,,0.00,Wunderground v.1.15,2013-03-02 21:50:00,
2013-03-02 15:55:00,21.5,15.7,30.28,WNW,300,7.0,8.0,78,0.00,,,0.00,Wunderground v.1.15,2013-03-02 21:55:00,
2013-03-02 16:00:00,21.4,15.9,30.28,WNW,300,8.0,8.0,79,0.00,,,0.00,Wunderground v.1.15,2013-03-02 22:00:00,
2013-03-02 16:10:00,21.2,16.0,30.28,WNW,300,6.0,6.0,80,0.00,,,0.00,Wunderground v.1.15,2013-03-02 22:10:00,
2013-03-02 16:15:00,21.2,16.0,30.28,WNW,300,4.0,6.0,80,0.00,,,0.00,Wunderground v.1.15,2013-03-02 22:15:00,
2013-03-02 16:20:00,21.1,15.9,30.28,WNW,300,4.0,6.0,80,0.00,,,0.00,Wunderground v.1.15,2013-03-02 22:20:00,
2013-03-02 16:25:00,20.9,15.7,30.28,WNW,300,4.0,4.0,80,0.00,,,0.00,Wunderground v.1.15,2013-03-02 22:25:00,
2013-03-02 16:30:00,20.6,15.4,30.28,WNW,300,3.0,5.0,80,0.00,,,0.00,Wunderground v.1.15,2013-03-02 22:30:00,
2013-03-02 16:35:00,20.3,15.1,30.28,WNW,300,3.0,5.0,80,0.00,,,0.00,Wunderground v.1.15,2013-03-02 22:35:00,
2013-03-02 16:40:00,20.0,15.1,30.28,WNW,300,3.0,5.0,81,0.00,,,0.00,Wunderground v.1.15,2013-03-02 22:40:00,
2013-03-02 16:45:00,20.0,15.4,30.28,WNW,300,4.0,5.0,82,0.00,,,0.00,Wunderground v.1.15,2013-03-02 22:45:00,
2013-03-02 16:50:00,20.4,15.5,30.27,WNW,300,3.0,5.0,81,0.00,,,0.00,Wunderground v.1.15,2013-03-02 22:50:00,
2013-03-02 16:55:00,20.3,15.4,30.27,WNW,300,3.0,3.0,81,0.00,,,0.00,Wunderground v.1.15,2013-03-02 22:55:00,
2013-03-02 17:00:00,20.2,15.3,30.27,WNW,300,2.0,3.0,81,0.00,,,0.00,Wunderground v.1.15,2013-03-02 23:00:00,
2013-03-02 17:05:00,20.2,15.6,30.27,WNW,300,2.0,2.0,82,0.00,,,0.00,Wunderground v.1.15,2013-03-02 23:05:00,
2013-03-02 17:10:00,20.3,15.7,30.27,WNW,300,1.0,2.0,82,0.00,,,0.00,Wunderground v.1.15,2013-03-02 23:10:00,
2013-03-02 17:16:00,20.4,15.8,30.27,WNW,300,2.0,3.0,82,0.00,,,0.00,Wunderground v.1.15,2013-03-02 23:16:00,
2013-03-02 17:23:00,20.1,15.2,30.27,WNW,300,1.0,2.0,81,0.00,,,0.00,Wunderground v.1.15,2013-03-02 23:23:00,
2013-03-02 17:28:00,19.8,14.9,30.28,WNW,300,1.0,2.0,81,0.00,,,0.00,Wunderground v.1.15,2013-03-02 23:28:00,
2013-03-02 17:33:00,19.0,13.8,30.28,WNW,300,3.0,3.0,80,0.00,,,0.00,Wunderground v.1.15,2013-03-02 23:33:00,
2013-03-02 17:38:00,17.7,12.3,30.28,WNW,300,3.0,4.0,79,0.00,,,0.00,Wunderground v.1.15,2013-03-02 23:38:00,
2013-03-02 17:43:00,17.0,12.5,30.28,WNW,300,2.0,3.0,82,0.00,,,0.00,Wunderground v.1.15,2013-03-02 23:43:00,
2013-03-02 17:48:00,16.9,12.4,30.28,WNW,300,2.0,3.0,82,0.00,,,0.00,Wunderground v.1.15,2013-03-02 23:48:00,
2013-03-02 17:53:00,16.5,12.5,30.27,WNW,300,1.0,2.0,84,0.00,,,0.00,Wunderground v.1.15,2013-03-02 23:53:00,
2013-03-02 17:58:00,16.5,12.8,30.28,WNW,300,1.0,2.0,85,0.00,,,0.00,Wunderground v.1.15,2013-03-02 23:58:00,
2013-03-02 18:03:00,16.1,12.1,30.28,WNW,300,0.0,0.0,84,0.00,,,0.00,Wunderground v.1.15,2013-03-03 00:03:00,
2013-03-02 18:08:00,15.9,12.2,30.27,WNW,300,0.0,0.0,85,0.00,,,0.00,Wunderground v.1.15,2013-03-03 00:08:00,
2013-03-02 18:14:00,15.9,12.2,30.27,WNW,300,0.0,0.0,85,0.00,,,0.00,Wunderground v.1.15,2013-03-03 00:14:00,
2013-03-02 18:19:00,15.7,12.0,30.27,WNW,300,0.0,0.0,85,0.00,,,0.00,Wunderground v.1.15,2013-03-03 00:19:00,
2013-03-02 18:25:00,15.5,12.1,30.27,WNW,300,0.0,0.0,86,0.00,,,0.00,Wunderground v.1.15,2013-03-03 00:25:00,
2013-03-02 18:30:00,15.5,12.3,30.27,WNW,300,0.0,0.0,87,0.00,,,0.00,Wunderground v.1.15,2013-03-03 00:30:00,
2013-03-02 18:35:00,15.4,12.2,30.27,WNW,300,0.0,0.0,87,0.00,,,0.00,Wunderground v.1.15,2013-03-03 00:35:00,
2013-03-02 18:40:00,15.2,12.0,30.27,WNW,300,0.0,0.0,87,0.00,,,0.00,Wunderground v.1.15,2013-03-03 00:40:00,
2013-03-02 18:45:00,15.0,11.8,30.27,WNW,300,0.0,0.0,87,0.00,,,0.00,Wunderground v.1.15,2013-03-03 00:45:00,
2013-03-02 18:50:00,14.7,11.5,30.27,WNW,300,0.0,0.0,87,0.00,,,0.00,Wunderground v.1.15,2013-03-03 00:50:00,
2013-03-02 18:55:00,14.3,10.9,30.27,WNW,300,0.0,2.0,86,0.00,,,0.00,Wunderground v.1.15,2013-03-03 00:55:00,
2013-03-02 19:00:00,13.8,10.6,30.27,WNW,300,0.0,0.0,87,0.00,,,0.00,Wunderground v.1.15,2013-03-03 01:00:00,
2013-03-02 19:05:00,13.4,10.3,30.27,WNW,300,0.0,2.0,87,0.00,,,0.00,Wunderground v.1.15,2013-03-03 01:05:00,
2013-03-02 19:10:00,13.2,10.3,30.27,WNW,300,0.0,0.0,88,0.00,,,0.00,Wunderground v.1.15,2013-03-03 01:10:00,
2013-03-02 19:15:00,13.1,10.2,30.27,WNW,300,0.0,0.0,88,0.00,,,0.00,Wunderground v.1.15,2013-03-03 01:15:00,
2013-03-02 19:20:00,12.9,10.0,30.27,WNW,300,2.0,4.0,88,0.00,,,0.00,Wunderground v.1.15,2013-03-03 01:20:00,
2013-03-02 19:25:00,12.6,9.7,30.27,WNW,300,0.0,1.0,88,0.00,,,0.00,Wunderground v.1.15,2013-03-03 01:25:00,
2013-03-02 19:31:00,12.4,9.8,30.27,WNW,300,1.0,4.0,89,0.00,,,0.00,Wunderground v.1.15,2013-03-03 01:31:00,
2013-03-02 19:36:00,12.5,10.1,30.27,WNW,300,5.0,6.0,90,0.00,,,0.00,Wunderground v.1.15,2013-03-03 01:36:00,
2013-03-02 19:41:00,12.5,9.9,30.27,WNW,300,3.0,6.0,89,0.00,,,0.00,Wunderground v.1.15,2013-03-03 01:41:00,
2013-03-02 19:46:00,12.3,9.7,30.27,WNW,300,0.0,4.0,89,0.00,,,0.00,Wunderground v.1.15,2013-03-03 01:46:00,
2013-03-02 19:51:00,12.2,9.6,30.27,WNW,300,1.0,4.0,89,0.00,,,0.00,Wunderground v.1.15,2013-03-03 01:51:00,
2013-03-02 19:56:00,12.1,9.5,30.26,WNW,300,2.0,2.0,89,0.00,,,0.00,Wunderground v.1.15,2013-03-03 01:56:00,
2013-03-02 20:01:00,12.1,9.5,30.26,WNW,300,0.0,1.0,89,0.00,,,0.00,Wunderground v.1.15,2013-03-03 02:01:00,
2013-03-02 20:06:00,12.1,9.7,30.26,WNW,300,0.0,0.0,90,0.00,,,0.00,Wunderground v.1.15,2013-03-03 02:06:00,
2013-03-02 20:12:00,12.3,9.9,30.26,WNW,300,0.0,0.0,90,0.00,,,0.00,Wunderground v.1.15,2013-03-03 02:12:00,
2013-03-02 20:17:00,12.4,10.0,30.26,WNW,300,0.0,0.0,90,0.00,,,0.00,Wunderground v.1.15,2013-03-03 02:17:00,
2013-03-02 20:23:00,12.5,10.1,30.27,WNW,300,0.0,0.0,90,0.00,,,0.00,Wunderground v.1.15,2013-03-03 02:23:00,
2013-03-02 20:28:00,12.6,10.2,30.27,WNW,300,0.0,0.0,90,0.00,,,0.00,Wunderground v.1.15,2013-03-03 02:28:00,
2013-03-02 20:33:00,12.3,9.7,30.27,WNW,300,0.0,0.0,89,0.00,,,0.00,Wunderground v.1.15,2013-03-03 02:33:00,
2013-03-02 20:38:00,12.1,9.7,30.27,WNW,300,0.0,0.0,90,0.00,,,0.00,Wunderground v.1.15,2013-03-03 02:38:00,
2013-03-02 20:44:00,11.8,9.4,30.26,WNW,300,0.0,0.0,90,0.00,,,0.00,Wunderground v.1.15,2013-03-03 02:44:00,
2013-03-02 20:49:00,11.9,9.8,30.26,WNW,300,0.0,0.0,91,0.00,,,0.00,Wunderground v.1.15,2013-03-03 02:49:00,
2013-03-02 20:54:00,12.0,9.9,30.26,WNW,300,0.0,0.0,91,0.00,,,0.00,Wunderground v.1.15,2013-03-03 02:54:00,
2013-03-02 20:59:00,12.3,10.2,30.26,WNW,300,0.0,0.0,91,0.00,,,0.00,Wunderground v.1.15,2013-03-03 02:59:00,
2013-03-02 21:04:00,12.3,10.2,30.26,WNW,300,0.0,0.0,91,0.00,,,0.00,Wunderground v.1.15,2013-03-03 03:04:00,
2013-03-02 21:09:00,12.2,9.8,30.26,WNW,300,0.0,0.0,90,0.00,,,0.00,Wunderground v.1.15,2013-03-03 03:09:00,
2013-03-02 21:14:00,11.8,9.4,30.27,WNW,300,0.0,0.0,90,0.00,,,0.00,Wunderground v.1.15,2013-03-03 03:14:00,
2013-03-02 21:19:00,11.4,9.0,30.27,WNW,300,2.0,2.0,90,0.00,,,0.00,Wunderground v.1.15,2013-03-03 03:19:00,
2013-03-02 21:24:00,11.5,9.4,30.27,WNW,300,0.0,1.0,91,0.00,,,0.00,Wunderground v.1.15,2013-03-03 03:24:00,
2013-03-02 21:29:00,11.3,8.9,30.27,WNW,300,2.0,2.0,90,0.00,,,0.00,Wunderground v.1.15,2013-03-03 03:29:00,
2013-03-02 21:34:00,11.5,9.4,30.27,WNW,300,3.0,4.0,91,0.00,,,0.00,Wunderground v.1.15,2013-03-03 03:34:00,
2013-03-02 21:39:00,11.7,9.8,30.27,WNW,300,0.0,4.0,92,0.00,,,0.00,Wunderground v.1.15,2013-03-03 03:39:00,
2013-03-02 21:44:00,11.8,9.9,30.27,WNW,300,2.0,2.0,92,0.00,,,0.00,Wunderground v.1.15,2013-03-03 03:44:00,
2013-03-02 21:49:00,11.7,9.6,30.27,WNW,300,2.0,4.0,91,0.00,,,0.00,Wunderground v.1.15,2013-03-03 03:49:00,
2013-03-02 21:54:00,11.6,9.5,30.27,WNW,300,2.0,4.0,91,0.00,,,0.00,Wunderground v.1.15,2013-03-03 03:54:00,
2013-03-02 21:59:00,11.5,9.4,30.27,WNW,300,2.0,4.0,91,0.00,,,0.00,Wunderground v.1.15,2013-03-03 03:59:00,
2013-03-02 22:04:00,11.4,9.3,30.27,WNW,300,2.0,3.0,91,0.00,,,0.00,Wunderground v.1.15,2013-03-03 04:04:00,
2013-03-02 22:09:00,11.4,9.3,30.26,WNW,300,1.0,2.0,91,0.00,,,0.00,Wunderground v.1.15,2013-03-03 04:09:00,
2013-03-02 22:14:00,11.4,9.3,30.27,WNW,300,0.0,2.0,91,0.00,,,0.00,Wunderground v.1.15,2013-03-03 04:14:00,
2013-03-02 22:19:00,11.4,9.3,30.27,WNW,300,2.0,2.0,91,0.00,,,0.00,Wunderground v.1.15,2013-03-03 04:19:00,
2013-03-02 22:24:00,11.2,9.1,30.26,WNW,300,0.0,0.0,91,0.00,,,0.00,Wunderground v.1.15,2013-03-03 04:24:00,
2013-03-02 22:29:00,10.8,8.7,30.26,WNW,300,0.0,2.0,91,0.00,,,0.00,Wunderground v.1.15,2013-03-03 04:29:00,
2013-03-02 22:34:00,10.5,8.4,30.27,WNW,300,0.0,0.0,91,0.00,,,0.00,Wunderground v.1.15,2013-03-03 04:34:00,
2013-03-02 22:39:00,10.4,8.3,30.26,WNW,300,0.0,3.0,91,0.00,,,0.00,Wunderground v.1.15,2013-03-03 04:39:00,
2013-03-02 22:44:00,10.3,8.2,30.26,WNW,300,0.0,1.0,91,0.00,,,0.00,Wunderground v.1.15,2013-03-03 04:44:00,
2013-03-02 22:49:00,10.6,8.7,30.26,WNW,300,0.0,1.0,92,0.00,,,0.00,Wunderground v.1.15,2013-03-03 04:49:00,
2013-03-02 22:54:00,10.7,8.8,30.25,WNW,300,0.0,0.0,92,0.00,,,0.00,Wunderground v.1.15,2013-03-03 04:54:00,
2013-03-02 22:59:00,11.0,9.1,30.25,WNW,300,0.0,2.0,92,0.00,,,0.00,Wunderground v.1.15,2013-03-03 04:59:00,
2013-03-02 23:00:00,11.0,9.4,30.25,WNW,300,1.0,1.0,93,0.00,,,0.00,Wunderground v.1.15,2013-03-03 05:00:00,
2013-03-02 23:05:00,11.5,9.6,30.25,WNW,300,0.0,0.0,92,0.00,,,0.00,Wunderground v.1.15,2013-03-03 05:05:00,
2013-03-02 23:10:00,11.6,9.7,30.25,WNW,300,0.0,0.0,92,0.00,,,0.00,Wunderground v.1.15,2013-03-03 05:10:00,
2013-03-02 23:15:00,11.3,9.2,30.25,WNW,300,0.0,0.0,91,0.00,,,0.00,Wunderground v.1.15,2013-03-03 05:15:00,
2013-03-02 23:20:00,11.5,9.6,30.25,WNW,300,2.0,3.0,92,0.00,,,0.00,Wunderground v.1.15,2013-03-03 05:20:00,
2013-03-02 23:25:00,12.2,10.6,30.25,WNW,300,4.0,4.0,93,0.00,,,0.00,Wunderground v.1.15,2013-03-03 05:25:00,
2013-03-02 23:30:00,12.3,10.4,30.25,WNW,300,1.0,4.0,92,0.00,,,0.00,Wunderground v.1.15,2013-03-03 05:30:00,
2013-03-02 23:36:00,12.2,10.3,30.25,WNW,300,1.0,4.0,92,0.00,,,0.00,Wunderground v.1.15,2013-03-03 05:36:00,
2013-03-02 23:41:00,12.3,10.4,30.25,WNW,300,0.0,4.0,92,0.00,,,0.00,Wunderground v.1.15,2013-03-03 05:41:00,
2013-03-02 23:46:00,12.2,10.1,30.24,WNW,300,0.0,1.0,91,0.00,,,0.00,Wunderground v.1.15,2013-03-03 05:46:00,
2013-03-02 23:52:00,11.7,9.6,30.24,WNW,300,0.0,0.0,91,0.00,,,0.00,Wunderground v.1.15,2013-03-03 05:52:00,
2013-03-02 23:57:00,11.2,8.8,30.24,WNW,300,0.0,0.0,90,0.00,,,0.00,Wunderground v.1.15,2013-03-03 05:57:00,